sensor_id;sensor_type;location;lat;lon;timestamp;pressure;altitude;pressure_sealevel;temperature;humidity
5380;BME280;2713;42.680;23.310;2022-07-05T00:00:57;95170.25;;;24.76;41.53
5380;BME280;2713;42.680;23.310;2022-07-05T00:03:24;95174.19;;;24.43;41.73
5380;BME280;2713;42.680;23.310;2022-07-05T00:05:51;95175.56;;;24.55;41.88
5380;BME280;2713;42.680;23.310;2022-07-05T00:08:18;95175.56;;;24.65;41.45
5380;BME280;2713;42.680;23.310;2022-07-05T00:10:45;95179.00;;;24.76;41.29
5380;BME280;2713;42.680;23.310;2022-07-05T00:13:13;95177.47;;;25.05;41.04
5380;BME280;2713;42.680;23.310;2022-07-05T00:15:41;95180.91;;;25.26;40.50
5380;BME280;2713;42.680;23.310;2022-07-05T00:18:08;95179.06;;;25.37;40.24
5380;BME280;2713;42.680;23.310;2022-07-05T00:20:35;95183.84;;;25.40;40.26
5380;BME280;2713;42.680;23.310;2022-07-05T00:23:02;95167.06;;;25.54;39.54
5380;BME280;2713;42.680;23.310;2022-07-05T00:25:29;95172.91;;;25.46;39.46
5380;BME280;2713;42.680;23.310;2022-07-05T00:27:55;95171.84;;;25.52;39.88
5380;BME280;2713;42.680;23.310;2022-07-05T00:30:22;95177.19;;;25.52;39.24
5380;BME280;2713;42.680;23.310;2022-07-05T00:32:51;95164.41;;;25.44;38.38
5380;BME280;2713;42.680;23.310;2022-07-05T00:35:18;95174.69;;;24.40;39.86
5380;BME280;2713;42.680;23.310;2022-07-05T00:37:45;95170.41;;;24.23;40.54
5380;BME280;2713;42.680;23.310;2022-07-05T00:40:12;95171.22;;;24.24;40.54
5380;BME280;2713;42.680;23.310;2022-07-05T00:42:39;95172.03;;;24.30;40.69
5380;BME280;2713;42.680;23.310;2022-07-05T00:45:07;95174.47;;;24.41;40.24
5380;BME280;2713;42.680;23.310;2022-07-05T00:47:35;95173.69;;;24.71;39.86
5380;BME280;2713;42.680;23.310;2022-07-05T00:50:03;95167.34;;;24.82;39.65
5380;BME280;2713;42.680;23.310;2022-07-05T00:52:30;95172.38;;;24.79;40.04
5380;BME280;2713;42.680;23.310;2022-07-05T00:54:58;95155.59;;;24.63;39.71
5380;BME280;2713;42.680;23.310;2022-07-05T00:57:25;95169.16;;;24.56;39.96
5380;BME280;2713;42.680;23.310;2022-07-05T00:59:52;95167.56;;;24.60;40.54
5380;BME280;2713;42.680;23.310;2022-07-05T01:02:18;95158.03;;;24.74;40.28
5380;BME280;2713;42.680;23.310;2022-07-05T01:04:49;95160.94;;;24.78;39.72
5380;BME280;2713;42.680;23.310;2022-07-05T01:07:21;95172.13;;;25.00;39.93
5380;BME280;2713;42.680;23.310;2022-07-05T01:09:48;95171.38;;;25.00;39.50
5380;BME280;2713;42.680;23.310;2022-07-05T01:12:16;95179.63;;;25.03;39.33
5380;BME280;2713;42.680;23.310;2022-07-05T01:14:43;95175.34;;;25.07;39.31
5380;BME280;2713;42.680;23.310;2022-07-05T01:17:11;95169.75;;;24.99;39.50
5380;BME280;2713;42.680;23.310;2022-07-05T01:19:38;95175.28;;;24.52;39.56
5380;BME280;2713;42.680;23.310;2022-07-05T01:22:12;95183.25;;;24.52;40.19
5380;BME280;2713;42.680;23.310;2022-07-05T01:24:43;95184.56;;;24.49;40.06
5380;BME280;2713;42.680;23.310;2022-07-05T01:27:10;95188.84;;;24.65;39.83
5380;BME280;2713;42.680;23.310;2022-07-05T01:29:37;95188.06;;;24.65;39.46
5380;BME280;2713;42.680;23.310;2022-07-05T01:32:05;95198.84;;;24.23;40.30
5380;BME280;2713;42.680;23.310;2022-07-05T01:34:32;95194.06;;;24.20;40.46
5380;BME280;2713;42.680;23.310;2022-07-05T01:36:59;95190.84;;;24.18;40.53
5380;BME280;2713;42.680;23.310;2022-07-05T01:39:26;95181.22;;;24.07;41.07
5380;BME280;2713;42.680;23.310;2022-07-05T01:41:55;95178.00;;;24.00;41.01
5380;BME280;2713;42.680;23.310;2022-07-05T01:44:21;95177.44;;;23.98;41.68
5380;BME280;2713;42.680;23.310;2022-07-05T01:46:51;95175.69;;;24.13;41.46
5380;BME280;2713;42.680;23.310;2022-07-05T01:49:22;95179.19;;;24.24;41.56
5380;BME280;2713;42.680;23.310;2022-07-05T01:51:55;95185.19;;;23.99;43.36
5380;BME280;2713;42.680;23.310;2022-07-05T01:54:24;95177.00;;;24.11;43.58
5380;BME280;2713;42.680;23.310;2022-07-05T01:56:52;95174.97;;;24.28;44.02
5380;BME280;2713;42.680;23.310;2022-07-05T01:59:20;95177.63;;;24.38;44.45
5380;BME280;2713;42.680;23.310;2022-07-05T02:01:47;95180.59;;;23.80;46.66
5380;BME280;2713;42.680;23.310;2022-07-05T02:04:14;95177.59;;;23.71;47.07
5380;BME280;2713;42.680;23.310;2022-07-05T02:06:43;95175.94;;;23.60;47.51
5380;BME280;2713;42.680;23.310;2022-07-05T02:09:11;95174.94;;;23.71;47.17
5380;BME280;2713;42.680;23.310;2022-07-05T02:11:38;95173.63;;;23.73;47.39
5380;BME280;2713;42.680;23.310;2022-07-05T02:14:05;95181.19;;;23.97;46.86
5380;BME280;2713;42.680;23.310;2022-07-05T02:16:37;95175.31;;;23.95;47.12
5380;BME280;2713;42.680;23.310;2022-07-05T02:19:04;95185.13;;;23.89;47.59
5380;BME280;2713;42.680;23.310;2022-07-05T02:21:35;95182.81;;;24.03;46.70
5380;BME280;2713;42.680;23.310;2022-07-05T02:24:06;95182.31;;;24.11;46.12
5380;BME280;2713;42.680;23.310;2022-07-05T02:26:39;95180.22;;;24.13;45.77
5380;BME280;2713;42.680;23.310;2022-07-05T02:29:06;95184.47;;;24.19;45.69
5380;BME280;2713;42.680;23.310;2022-07-05T02:31:34;95190.91;;;24.28;45.55
5380;BME280;2713;42.680;23.310;2022-07-05T02:34:04;95190.91;;;24.33;45.45
5380;BME280;2713;42.680;23.310;2022-07-05T02:36:31;95191.44;;;24.35;45.82
5380;BME280;2713;42.680;23.310;2022-07-05T02:38:58;95192.50;;;24.39;46.57
5380;BME280;2713;42.680;23.310;2022-07-05T02:41:25;95192.81;;;24.48;46.63
5380;BME280;2713;42.680;23.310;2022-07-05T02:43:52;95198.91;;;24.43;46.60
5380;BME280;2713;42.680;23.310;2022-07-05T02:46:25;95200.53;;;24.54;46.40
5380;BME280;2713;42.680;23.310;2022-07-05T02:48:54;95201.06;;;24.56;46.28
5380;BME280;2713;42.680;23.310;2022-07-05T02:51:22;95205.53;;;24.46;46.39
5380;BME280;2713;42.680;23.310;2022-07-05T02:53:52;95206.31;;;24.36;46.58
5380;BME280;2713;42.680;23.310;2022-07-05T02:56:19;95202.34;;;24.49;46.48
5380;BME280;2713;42.680;23.310;2022-07-05T02:58:47;95200.25;;;24.51;46.98
5380;BME280;2713;42.680;23.310;2022-07-05T03:01:14;95203.19;;;24.54;47.20
5380;BME280;2713;42.680;23.310;2022-07-05T03:03:41;95209.56;;;24.58;47.32
5380;BME280;2713;42.680;23.310;2022-07-05T03:06:09;95205.59;;;24.76;47.07
5380;BME280;2713;42.680;23.310;2022-07-05T03:08:39;95211.97;;;24.60;47.92
5380;BME280;2713;42.680;23.310;2022-07-05T03:11:07;95205.31;;;24.62;48.08
5380;BME280;2713;42.680;23.310;2022-07-05T03:13:35;95205.34;;;24.72;48.16
5380;BME280;2713;42.680;23.310;2022-07-05T03:16:03;95212.53;;;24.72;48.04
5380;BME280;2713;42.680;23.310;2022-07-05T03:18:30;95205.88;;;24.80;48.08
5380;BME280;2713;42.680;23.310;2022-07-05T03:20:57;95203.25;;;24.95;47.50
5380;BME280;2713;42.680;23.310;2022-07-05T03:23:26;95209.66;;;25.24;47.29
5380;BME280;2713;42.680;23.310;2022-07-05T03:25:57;95200.06;;;25.38;46.86
5380;BME280;2713;42.680;23.310;2022-07-05T03:28:25;95199.00;;;25.44;46.34
5380;BME280;2713;42.680;23.310;2022-07-05T03:30:54;95194.47;;;25.60;46.10
5380;BME280;2713;42.680;23.310;2022-07-05T03:33:22;95203.53;;;25.64;45.86
5380;BME280;2713;42.680;23.310;2022-07-05T03:35:49;95212.59;;;25.58;45.63
5380;BME280;2713;42.680;23.310;2022-07-05T03:38:18;95199.00;;;25.44;45.64
5380;BME280;2713;42.680;23.310;2022-07-05T03:40:45;95202.72;;;25.38;45.88
5380;BME280;2713;42.680;23.310;2022-07-05T03:43:13;95195.03;;;25.37;45.17
5380;BME280;2713;42.680;23.310;2022-07-05T03:45:41;95193.16;;;25.12;44.90
5380;BME280;2713;42.680;23.310;2022-07-05T03:48:08;95188.38;;;25.14;45.83
5380;BME280;2713;42.680;23.310;2022-07-05T03:50:35;95197.69;;;25.21;44.64
5380;BME280;2713;42.680;23.310;2022-07-05T03:53:02;95189.16;;;25.40;45.44
5380;BME280;2713;42.680;23.310;2022-07-05T03:55:30;95191.78;;;25.45;45.29
5380;BME280;2713;42.680;23.310;2022-07-05T03:57:57;95187.53;;;25.59;44.04
5380;BME280;2713;42.680;23.310;2022-07-05T04:00:26;95187.03;;;25.57;44.24
5380;BME280;2713;42.680;23.310;2022-07-05T04:03:01;95187.00;;;25.62;43.89
5380;BME280;2713;42.680;23.310;2022-07-05T04:05:29;95193.16;;;25.52;44.20
5380;BME280;2713;42.680;23.310;2022-07-05T04:07:57;95196.88;;;25.31;44.43
5380;BME280;2713;42.680;23.310;2022-07-05T04:10:29;95196.88;;;25.31;44.69
5380;BME280;2713;42.680;23.310;2022-07-05T04:12:56;95189.69;;;25.47;44.14
5380;BME280;2713;42.680;23.310;2022-07-05T04:15:27;95194.47;;;25.65;44.24
5380;BME280;2713;42.680;23.310;2022-07-05T04:17:57;95198.16;;;25.79;44.25
5380;BME280;2713;42.680;23.310;2022-07-05T04:20:27;95190.13;;;25.94;43.82
5380;BME280;2713;42.680;23.310;2022-07-05T04:22:55;95188.72;;;26.07;43.69
5380;BME280;2713;42.680;23.310;2022-07-05T04:25:23;95194.06;;;26.07;43.41
5380;BME280;2713;42.680;23.310;2022-07-05T04:27:58;95192.53;;;25.96;43.89
5380;BME280;2713;42.680;23.310;2022-07-05T04:30:27;95189.03;;;26.00;44.44
5380;BME280;2713;42.680;23.310;2022-07-05T04:32:55;95189.53;;;26.17;44.14
5380;BME280;2713;42.680;23.310;2022-07-05T04:35:23;95192.97;;;26.23;44.02
5380;BME280;2713;42.680;23.310;2022-07-05T04:37:52;95184.78;;;26.58;43.29
5380;BME280;2713;42.680;23.310;2022-07-05T04:40:20;95183.59;;;26.85;42.29
5380;BME280;2713;42.680;23.310;2022-07-05T04:42:47;95196.38;;;27.16;41.53
5380;BME280;2713;42.680;23.310;2022-07-05T04:45:15;95194.81;;;27.49;41.05
5380;BME280;2713;42.680;23.310;2022-07-05T04:47:44;95189.09;;;27.85;40.16
5380;BME280;2713;42.680;23.310;2022-07-05T04:50:12;95179.91;;;28.19;39.50
5380;BME280;2713;42.680;23.310;2022-07-05T04:52:39;95191.72;;;28.37;39.07
5380;BME280;2713;42.680;23.310;2022-07-05T04:55:06;95195.03;;;28.48;38.23
5380;BME280;2713;42.680;23.310;2022-07-05T04:57:37;95203.13;;;28.66;38.15
5380;BME280;2713;42.680;23.310;2022-07-05T05:00:05;95190.56;;;28.43;38.73
5380;BME280;2713;42.680;23.310;2022-07-05T05:02:33;95198.66;;;28.57;37.89
5380;BME280;2713;42.680;23.310;2022-07-05T05:05:02;95193.63;;;28.74;38.15
5380;BME280;2713;42.680;23.310;2022-07-05T05:07:29;95196.75;;;29.00;37.72
5380;BME280;2713;42.680;23.310;2022-07-05T05:09:56;95200.63;;;28.70;37.54
5380;BME280;2713;42.680;23.310;2022-07-05T05:12:23;95207.44;;;29.00;37.54
5380;BME280;2713;42.680;23.310;2022-07-05T05:14:50;95198.66;;;29.32;37.68
5380;BME280;2713;42.680;23.310;2022-07-05T05:17:17;95199.44;;;29.64;36.61
5380;BME280;2713;42.680;23.310;2022-07-05T05:19:44;95200.84;;;29.76;35.79
5380;BME280;2713;42.680;23.310;2022-07-05T05:22:12;95206.47;;;29.60;36.08
5380;BME280;2713;42.680;23.310;2022-07-05T05:24:39;95198.16;;;29.76;36.21
5380;BME280;2713;42.680;23.310;2022-07-05T05:27:06;95202.84;;;29.84;36.05
5380;BME280;2713;42.680;23.310;2022-07-05T05:29:32;95203.41;;;29.81;35.04
5380;BME280;2713;42.680;23.310;2022-07-05T05:31:59;95203.53;;;29.76;35.91
5380;BME280;2713;42.680;23.310;2022-07-05T05:34:26;95194.03;;;29.97;35.30
5380;BME280;2713;42.680;23.310;2022-07-05T05:36:53;95199.41;;;30.24;35.24
5380;BME280;2713;42.680;23.310;2022-07-05T05:39:22;95196.91;;;30.28;34.78
5380;BME280;2713;42.680;23.310;2022-07-05T05:41:48;95199.41;;;30.24;35.34
5380;BME280;2713;42.680;23.310;2022-07-05T05:44:16;95196.22;;;30.22;34.92
5380;BME280;2713;42.680;23.310;2022-07-05T05:46:42;95196.22;;;30.22;35.54
5380;BME280;2713;42.680;23.310;2022-07-05T05:49:09;95195.31;;;30.40;35.26
5380;BME280;2713;42.680;23.310;2022-07-05T05:51:36;95192.13;;;30.25;35.33
5380;BME280;2713;42.680;23.310;2022-07-05T05:54:03;95190.56;;;30.24;35.82
5380;BME280;2713;42.680;23.310;2022-07-05T05:56:32;95190.84;;;30.36;34.90
5380;BME280;2713;42.680;23.310;2022-07-05T05:58:59;95193.84;;;30.21;35.38
5380;BME280;2713;42.680;23.310;2022-07-05T06:01:25;95205.25;;;29.85;35.82
5380;BME280;2713;42.680;23.310;2022-07-05T06:03:52;95213.28;;;29.53;35.91
5380;BME280;2713;42.680;23.310;2022-07-05T06:06:19;95208.25;;;29.00;36.71
5380;BME280;2713;42.680;23.310;2022-07-05T06:08:46;95201.31;;;28.38;37.70
5380;BME280;2713;42.680;23.310;2022-07-05T06:11:13;95198.91;;;28.79;36.79
5380;BME280;2713;42.680;23.310;2022-07-05T06:13:41;95209.44;;;29.08;36.82
5380;BME280;2713;42.680;23.310;2022-07-05T06:16:08;95204.66;;;29.24;36.51
5380;BME280;2713;42.680;23.310;2022-07-05T06:18:35;95203.78;;;29.93;35.26
5380;BME280;2713;42.680;23.310;2022-07-05T06:21:02;95211.91;;;30.42;33.99
5380;BME280;2713;42.680;23.310;2022-07-05T06:23:29;95199.78;;;30.31;34.33
5380;BME280;2713;42.680;23.310;2022-07-05T06:25:56;95203.75;;;30.61;33.83
5380;BME280;2713;42.680;23.310;2022-07-05T06:28:23;95207.16;;;30.89;33.26
5380;BME280;2713;42.680;23.310;2022-07-05T06:30:52;95212.09;;;31.09;32.56
5380;BME280;2713;42.680;23.310;2022-07-05T06:33:19;95196.72;;;31.23;32.65
5380;BME280;2713;42.680;23.310;2022-07-05T06:35:46;95206.09;;;31.34;32.72
5380;BME280;2713;42.680;23.310;2022-07-05T06:38:13;95212.81;;;31.45;32.37
5380;BME280;2713;42.680;23.310;2022-07-05T06:40:41;95196.97;;;31.57;31.87
5380;BME280;2713;42.680;23.310;2022-07-05T06:43:10;95202.44;;;31.75;31.26
5380;BME280;2713;42.680;23.310;2022-07-05T06:45:54;95203.56;;;30.93;32.52
5380;BME280;2713;42.680;23.310;2022-07-05T06:48:21;95193.47;;;31.12;32.51
5380;BME280;2713;42.680;23.310;2022-07-05T06:50:48;95196.81;;;30.96;33.06
5380;BME280;2713;42.680;23.310;2022-07-05T06:53:15;95194.69;;;31.29;32.71
5380;BME280;2713;42.680;23.310;2022-07-05T06:55:42;95186.38;;;31.61;31.73
5380;BME280;2713;42.680;23.310;2022-07-05T06:58:11;95182.84;;;31.83;31.59
5380;BME280;2713;42.680;23.310;2022-07-05T07:00:38;95180.25;;;31.69;31.95
5380;BME280;2713;42.680;23.310;2022-07-05T07:03:07;95187.66;;;31.94;31.23
5380;BME280;2713;42.680;23.310;2022-07-05T07:05:34;95185.38;;;32.19;31.14
5380;BME280;2713;42.680;23.310;2022-07-05T07:08:00;95178.88;;;32.11;31.37
5380;BME280;2713;42.680;23.310;2022-07-05T07:10:45;95174.03;;;31.99;31.50
5380;BME280;2713;42.680;23.310;2022-07-05T07:13:12;95180.34;;;32.34;31.52
5380;BME280;2713;42.680;23.310;2022-07-05T07:15:39;95181.81;;;32.49;30.73
5380;BME280;2713;42.680;23.310;2022-07-05T07:18:07;95184.75;;;32.22;31.80
5380;BME280;2713;42.680;23.310;2022-07-05T07:20:34;95190.72;;;32.58;31.25
5380;BME280;2713;42.680;23.310;2022-07-05T07:23:01;95183.16;;;32.77;30.59
5380;BME280;2713;42.680;23.310;2022-07-05T07:25:28;95195.03;;;32.93;30.90
5380;BME280;2713;42.680;23.310;2022-07-05T07:27:56;95193.78;;;33.08;30.39
5380;BME280;2713;42.680;23.310;2022-07-05T07:30:25;95191.53;;;32.93;30.37
5380;BME280;2713;42.680;23.310;2022-07-05T07:32:53;95190.59;;;32.15;31.89
5380;BME280;2713;42.680;23.310;2022-07-05T07:35:21;95188.84;;;31.80;32.15
5380;BME280;2713;42.680;23.310;2022-07-05T07:37:48;95178.72;;;32.16;31.68
5380;BME280;2713;42.680;23.310;2022-07-05T07:40:15;95176.25;;;32.45;30.98
5380;BME280;2713;42.680;23.310;2022-07-05T07:42:43;95179.34;;;32.13;31.90
5380;BME280;2713;42.680;23.310;2022-07-05T07:45:10;95181.28;;;32.21;32.11
5380;BME280;2713;42.680;23.310;2022-07-05T07:47:37;95176.66;;;32.13;31.87
5380;BME280;2713;42.680;23.310;2022-07-05T07:50:05;95178.56;;;32.12;32.19
5380;BME280;2713;42.680;23.310;2022-07-05T07:52:33;95182.78;;;32.53;31.84
5380;BME280;2713;42.680;23.310;2022-07-05T07:55:02;95176.97;;;32.85;30.81
5380;BME280;2713;42.680;23.310;2022-07-05T07:57:29;95177.28;;;32.75;31.10
5380;BME280;2713;42.680;23.310;2022-07-05T07:59:56;95175.34;;;32.58;31.81
5380;BME280;2713;42.680;23.310;2022-07-05T08:02:23;95170.28;;;32.91;30.83
5380;BME280;2713;42.680;23.310;2022-07-05T08:04:50;95181.69;;;33.05;31.50
5380;BME280;2713;42.680;23.310;2022-07-05T08:07:17;95180.78;;;33.27;30.38
5380;BME280;2713;42.680;23.310;2022-07-05T08:09:46;95182.34;;;33.45;30.16
5380;BME280;2713;42.680;23.310;2022-07-05T08:12:13;95175.38;;;33.91;29.84
5380;BME280;2713;42.680;23.310;2022-07-05T08:14:40;95171.19;;;34.10;29.00
5380;BME280;2713;42.680;23.310;2022-07-05T08:17:07;95164.19;;;33.72;29.46
5380;BME280;2713;42.680;23.310;2022-07-05T08:19:35;95160.91;;;34.04;29.38
5380;BME280;2713;42.680;23.310;2022-07-05T08:22:20;95160.91;;;33.66;29.90
5380;BME280;2713;42.680;23.310;2022-07-05T08:24:49;95159.84;;;33.24;31.00
5380;BME280;2713;42.680;23.310;2022-07-05T08:27:16;95168.72;;;32.99;31.45
5380;BME280;2713;42.680;23.310;2022-07-05T08:29:43;95167.63;;;33.00;30.22
5380;BME280;2713;42.680;23.310;2022-07-05T08:32:11;95161.91;;;32.93;30.34
5380;BME280;2713;42.680;23.310;2022-07-05T08:34:37;95165.22;;;33.41;30.42
5380;BME280;2713;42.680;23.310;2022-07-05T08:37:05;95152.47;;;33.68;30.14
5380;BME280;2713;42.680;23.310;2022-07-05T08:39:32;95147.75;;;33.56;30.22
5380;BME280;2713;42.680;23.310;2022-07-05T08:42:00;95143.66;;;33.41;30.53
5380;BME280;2713;42.680;23.310;2022-07-05T08:44:30;95145.91;;;33.22;30.34
5380;BME280;2713;42.680;23.310;2022-07-05T08:47:02;95143.34;;;33.34;30.02
5380;BME280;2713;42.680;23.310;2022-07-05T08:49:30;95137.13;;;33.97;29.83
5380;BME280;2713;42.680;23.310;2022-07-05T08:52:02;95143.06;;;34.20;29.20
5380;BME280;2713;42.680;23.310;2022-07-05T08:54:30;95132.03;;;33.96;30.25
5380;BME280;2713;42.680;23.310;2022-07-05T08:56:57;95139.78;;;34.15;29.95
5380;BME280;2713;42.680;23.310;2022-07-05T08:59:25;95130.03;;;34.43;29.36
5380;BME280;2713;42.680;23.310;2022-07-05T09:01:53;95125.78;;;34.83;28.88
5380;BME280;2713;42.680;23.310;2022-07-05T09:04:22;95128.38;;;34.80;28.63
5380;BME280;2713;42.680;23.310;2022-07-05T09:06:52;95123.28;;;34.99;28.43
5380;BME280;2713;42.680;23.310;2022-07-05T09:09:22;95121.41;;;34.49;28.94
5380;BME280;2713;42.680;23.310;2022-07-05T09:11:49;95124.06;;;34.37;29.32
5380;BME280;2713;42.680;23.310;2022-07-05T09:14:22;95115.34;;;33.73;29.74
5380;BME280;2713;42.680;23.310;2022-07-05T09:16:51;95112.16;;;33.71;29.93
5380;BME280;2713;42.680;23.310;2022-07-05T09:19:18;95110.69;;;33.27;30.57
5380;BME280;2713;42.680;23.310;2022-07-05T09:21:45;95109.59;;;33.20;31.11
5380;BME280;2713;42.680;23.310;2022-07-05T09:24:13;95106.66;;;33.50;31.04
5380;BME280;2713;42.680;23.310;2022-07-05T09:26:42;95110.34;;;33.37;30.67
5380;BME280;2713;42.680;23.310;2022-07-05T09:29:11;95105.03;;;33.11;31.98
5380;BME280;2713;42.680;23.310;2022-07-05T09:31:40;95101.56;;;33.11;31.44
5380;BME280;2713;42.680;23.310;2022-07-05T09:34:11;95102.50;;;33.15;31.64
5380;BME280;2713;42.680;23.310;2022-07-05T09:36:48;95096.38;;;33.52;31.20
5380;BME280;2713;42.680;23.310;2022-07-05T09:39:15;95092.03;;;33.13;31.74
5380;BME280;2713;42.680;23.310;2022-07-05T09:41:42;95090.53;;;33.33;31.40
5380;BME280;2713;42.680;23.310;2022-07-05T09:44:09;95087.63;;;33.47;31.37
5380;BME280;2713;42.680;23.310;2022-07-05T09:46:36;95087.88;;;33.71;31.54
5380;BME280;2713;42.680;23.310;2022-07-05T09:49:03;95088.75;;;33.63;30.94
5380;BME280;2713;42.680;23.310;2022-07-05T09:51:46;95080.00;;;33.57;31.59
5380;BME280;2713;42.680;23.310;2022-07-05T09:54:13;95082.16;;;33.26;32.14
5380;BME280;2713;42.680;23.310;2022-07-05T09:56:44;95075.22;;;32.99;32.38
5380;BME280;2713;42.680;23.310;2022-07-05T09:59:12;95070.88;;;33.33;32.38
5380;BME280;2713;42.680;23.310;2022-07-05T10:01:40;95067.91;;;33.08;32.28
5380;BME280;2713;42.680;23.310;2022-07-05T10:04:08;95087.28;;;32.67;33.41
5380;BME280;2713;42.680;23.310;2022-07-05T10:06:36;95074.13;;;32.32;33.40
5380;BME280;2713;42.680;23.310;2022-07-05T10:09:04;95057.66;;;32.16;33.36
5380;BME280;2713;42.680;23.310;2022-07-05T10:11:31;95061.94;;;32.51;33.77
5380;BME280;2713;42.680;23.310;2022-07-05T10:13:59;95063.06;;;32.67;33.72
5380;BME280;2713;42.680;23.310;2022-07-05T10:16:29;95059.13;;;32.65;33.44
5380;BME280;2713;42.680;23.310;2022-07-05T10:18:56;95055.94;;;32.29;33.74
5380;BME280;2713;42.680;23.310;2022-07-05T10:21:24;95056.41;;;32.31;33.95
5380;BME280;2713;42.680;23.310;2022-07-05T10:23:53;95051.19;;;32.34;33.35
5380;BME280;2713;42.680;23.310;2022-07-05T10:26:22;95037.06;;;32.54;33.77
5380;BME280;2713;42.680;23.310;2022-07-05T10:28:53;95036.94;;;32.77;34.07
5380;BME280;2713;42.680;23.310;2022-07-05T10:31:20;95035.81;;;32.78;33.71
5380;BME280;2713;42.680;23.310;2022-07-05T10:33:48;95039.31;;;32.35;34.24
5380;BME280;2713;42.680;23.310;2022-07-05T10:36:15;95037.56;;;32.22;34.34
5380;BME280;2713;42.680;23.310;2022-07-05T10:38:43;95033.44;;;32.07;34.15
5380;BME280;2713;42.680;23.310;2022-07-05T10:41:14;95035.50;;;32.28;33.82
5380;BME280;2713;42.680;23.310;2022-07-05T10:43:44;95033.16;;;32.43;34.52
5380;BME280;2713;42.680;23.310;2022-07-05T10:46:10;95007.66;;;32.58;34.14
5380;BME280;2713;42.680;23.310;2022-07-05T10:49:09;95012.78;;;33.06;33.68
5380;BME280;2713;42.680;23.310;2022-07-05T10:51:36;95021.59;;;33.32;32.66
5380;BME280;2713;42.680;23.310;2022-07-05T10:54:03;95019.00;;;33.44;32.74
5380;BME280;2713;42.680;23.310;2022-07-05T10:56:37;95000.44;;;33.43;32.83
5380;BME280;2713;42.680;23.310;2022-07-05T10:59:09;95017.38;;;33.14;33.50
5380;BME280;2713;42.680;23.310;2022-07-05T11:01:38;95021.09;;;32.49;33.86
5380;BME280;2713;42.680;23.310;2022-07-05T11:04:23;95013.69;;;32.63;33.20
5380;BME280;2713;42.680;23.310;2022-07-05T11:06:52;95005.16;;;33.08;33.08
5380;BME280;2713;42.680;23.310;2022-07-05T11:09:20;95014.91;;;32.83;33.41
5380;BME280;2713;42.680;23.310;2022-07-05T11:12:04;95006.84;;;32.40;34.36
5380;BME280;2713;42.680;23.310;2022-07-05T11:14:34;95008.91;;;32.35;34.42
5380;BME280;2713;42.680;23.310;2022-07-05T11:17:22;95000.03;;;32.69;33.41
5380;BME280;2713;42.680;23.310;2022-07-05T11:20:30;94996.34;;;32.82;33.36
5380;BME280;2713;42.680;23.310;2022-07-05T11:23:08;95003.84;;;32.59;33.57
5380;BME280;2713;42.680;23.310;2022-07-05T11:25:38;94994.44;;;32.91;33.45
5380;BME280;2713;42.680;23.310;2022-07-05T11:28:12;94992.31;;;33.22;33.56
5380;BME280;2713;42.680;23.310;2022-07-05T11:31:03;94991.88;;;33.03;33.79
5380;BME280;2713;42.680;23.310;2022-07-05T11:33:35;94984.81;;;32.47;35.10
5380;BME280;2713;42.680;23.310;2022-07-05T11:36:03;94994.22;;;32.15;35.45
5380;BME280;2713;42.680;23.310;2022-07-05T11:38:31;94983.75;;;32.39;35.42
5380;BME280;2713;42.680;23.310;2022-07-05T11:41:12;94970.59;;;32.38;34.48
5380;BME280;2713;42.680;23.310;2022-07-05T11:43:41;94966.47;;;32.49;35.00
5380;BME280;2713;42.680;23.310;2022-07-05T11:46:08;94981.53;;;32.67;35.49
5380;BME280;2713;42.680;23.310;2022-07-05T11:48:36;94986.41;;;32.65;34.49
5380;BME280;2713;42.680;23.310;2022-07-05T11:51:13;94970.13;;;32.53;34.31
5380;BME280;2713;42.680;23.310;2022-07-05T11:53:41;94968.22;;;32.71;33.46
5380;BME280;2713;42.680;23.310;2022-07-05T11:56:09;94965.88;;;32.43;33.66
5380;BME280;2713;42.680;23.310;2022-07-05T11:58:36;94955.91;;;32.35;34.68
5380;BME280;2713;42.680;23.310;2022-07-05T12:01:05;94961.09;;;32.49;33.85
5380;BME280;2713;42.680;23.310;2022-07-05T12:03:33;94960.59;;;32.55;33.89
5380;BME280;2713;42.680;23.310;2022-07-05T12:06:10;94955.25;;;32.38;34.26
5380;BME280;2713;42.680;23.310;2022-07-05T12:08:37;94951.44;;;32.48;33.96
5380;BME280;2713;42.680;23.310;2022-07-05T12:11:05;94949.84;;;32.55;33.76
5380;BME280;2713;42.680;23.310;2022-07-05T12:13:50;94947.63;;;32.49;34.08
5380;BME280;2713;42.680;23.310;2022-07-05T12:16:18;94947.38;;;32.07;35.16
5380;BME280;2713;42.680;23.310;2022-07-05T12:18:49;94939.59;;;32.06;34.85
5380;BME280;2713;42.680;23.310;2022-07-05T12:21:17;94936.75;;;32.20;35.00
5380;BME280;2713;42.680;23.310;2022-07-05T12:23:46;94938.97;;;32.26;34.58
5380;BME280;2713;42.680;23.310;2022-07-05T12:26:14;94934.50;;;32.30;35.59
5380;BME280;2713;42.680;23.310;2022-07-05T12:28:42;94940.69;;;32.31;35.06
5380;BME280;2713;42.680;23.310;2022-07-05T12:31:21;94940.56;;;32.19;34.87
5380;BME280;2713;42.680;23.310;2022-07-05T12:33:49;94929.66;;;32.15;34.36
5380;BME280;2713;42.680;23.310;2022-07-05T12:36:19;94936.59;;;32.07;34.92
5380;BME280;2713;42.680;23.310;2022-07-05T12:38:49;94936.41;;;32.04;34.70
5380;BME280;2713;42.680;23.310;2022-07-05T12:41:21;94929.31;;;32.25;35.22
5380;BME280;2713;42.680;23.310;2022-07-05T12:43:54;94927.06;;;32.44;33.64
5380;BME280;2713;42.680;23.310;2022-07-05T12:46:35;94921.66;;;32.61;34.21
5380;BME280;2713;42.680;23.310;2022-07-05T12:49:03;94911.66;;;32.71;34.31
5380;BME280;2713;42.680;23.310;2022-07-05T12:51:34;94909.44;;;32.73;34.35
5380;BME280;2713;42.680;23.310;2022-07-05T12:54:02;94907.56;;;32.56;34.59
5380;BME280;2713;42.680;23.310;2022-07-05T12:56:47;94911.84;;;32.65;34.90
5380;BME280;2713;42.680;23.310;2022-07-05T12:59:32;94907.84;;;32.72;34.61
5380;BME280;2713;42.680;23.310;2022-07-05T13:02:01;94891.44;;;32.94;33.26
5380;BME280;2713;42.680;23.310;2022-07-05T13:04:29;94894.38;;;33.09;33.45
5380;BME280;2713;42.680;23.310;2022-07-05T13:06:57;94893.53;;;32.88;34.21
5380;BME280;2713;42.680;23.310;2022-07-05T13:09:33;94894.44;;;32.63;34.97
5380;BME280;2713;42.680;23.310;2022-07-05T13:12:08;94889.84;;;32.63;33.98
5380;BME280;2713;42.680;23.310;2022-07-05T13:14:36;94879.28;;;32.88;33.90
5380;BME280;2713;42.680;23.310;2022-07-05T13:17:05;94880.16;;;33.00;33.88
5380;BME280;2713;42.680;23.310;2022-07-05T13:19:32;94885.13;;;32.90;35.01